DAW1192 EDDH-EGLL
Flight info
| Callsign | DAW1192 |
|---|---|
| Flight time | 1h 34m |
| Altitude | 36000 |
| Route | WSN5G WSN N125 ITMIZ DCT ABNED L980 LOGAN |
| Aircraft | A320/M-SDE3FGHIRWY/LB1 |
Departure
| Time | 2026-05-08 04:59 |
|---|---|
| Airport | Hamburg Helmut Schmidt Airport (EDDH) |
Arrival
| Time | 2026-05-08 06:33 |
|---|---|
| Airport | London Heathrow Airport (EGLL) |
| Time | Latitude | Longitude | Altitude | Speed | Heading |
|---|---|---|---|---|---|
| 2026-05-08 04:15 | 53.63074 | 10.00378 | 49 ft | 0 kts | 94° |
| 2026-05-08 04:50 | 53.63074 | 10.00372 | 51 ft | 3 kts | 94° |
| 2026-05-08 04:51 | 53.63077 | 10.00327 | 48 ft | 4 kts | 97° |
| 2026-05-08 04:51 | 53.63081 | 10.00282 | 47 ft | 4 kts | 101° |
| 2026-05-08 04:51 | 53.63087 | 10.00238 | 44 ft | 4 kts | 108° |
| 2026-05-08 04:51 | 53.63097 | 10.00197 | 44 ft | 4 kts | 131° |
| 2026-05-08 04:52 | 53.63112 | 10.00179 | 44 ft | 0 kts | 176° |
| 2026-05-08 04:56 | 53.63111 | 10.00179 | 45 ft | 1 kts | 176° |
| 2026-05-08 04:56 | 53.63101 | 10.00181 | 45 ft | 3 kts | 176° |
| 2026-05-08 04:56 | 53.63076 | 10.00181 | 45 ft | 4 kts | 183° |
| 2026-05-08 04:56 | 53.63043 | 10.00154 | 48 ft | 6 kts | 213° |
| 2026-05-08 04:57 | 53.63001 | 10.00108 | 47 ft | 8 kts | 213° |
| 2026-05-08 04:57 | 53.62949 | 10.00050 | 46 ft | 10 kts | 215° |
| 2026-05-08 04:57 | 53.62906 | 9.99949 | 45 ft | 12 kts | 242° |
| 2026-05-08 04:57 | 53.62868 | 9.99815 | 45 ft | 10 kts | 249° |
| 2026-05-08 04:58 | 53.62870 | 9.99746 | 45 ft | 5 kts | 305° |
| 2026-05-08 04:58 | 53.62908 | 9.99709 | 45 ft | 7 kts | 332° |
| 2026-05-08 04:58 | 53.63013 | 9.99617 | 45 ft | 44 kts | 333° |
| 2026-05-08 04:58 | 53.63519 | 9.99195 | 47 ft | 113 kts | 331° |
| 2026-05-08 04:59 | 53.64373 | 9.98446 | 54 ft | 162 kts | 334° |
| 2026-05-08 04:59 | 53.65435 | 9.97599 | 572 ft | 167 kts | 338° |
| 2026-05-08 04:59 | 53.66477 | 9.96722 | 1342 ft | 171 kts | 336° |
| 2026-05-08 04:59 | 53.67598 | 9.95755 | 1839 ft | 186 kts | 337° |
| 2026-05-08 05:00 | 53.68802 | 9.94717 | 2320 ft | 206 kts | 336° |
| 2026-05-08 05:00 | 53.70121 | 9.93573 | 2968 ft | 217 kts | 333° |
| 2026-05-08 05:00 | 53.71228 | 9.91807 | 3718 ft | 229 kts | 297° |
| 2026-05-08 05:00 | 53.71484 | 9.89080 | 4257 ft | 250 kts | 262° |
| 2026-05-08 05:01 | 53.71123 | 9.86401 | 4642 ft | 271 kts | 252° |
| 2026-05-08 05:01 | 53.70930 | 9.85365 | 4876 ft | 275 kts | 251° |
| 2026-05-08 05:01 | 53.70398 | 9.82811 | 5527 ft | 281 kts | 249° |
| 2026-05-08 05:01 | 53.69710 | 9.79702 | 6390 ft | 285 kts | 249° |
| 2026-05-08 05:02 | 53.69014 | 9.76550 | 7222 ft | 288 kts | 250° |
| 2026-05-08 05:02 | 53.68334 | 9.73354 | 8087 ft | 290 kts | 250° |
| 2026-05-08 05:02 | 53.68267 | 9.73031 | 8190 ft | 290 kts | 251° |
| 2026-05-08 05:03 | 53.67854 | 9.71034 | 8576 ft | 291 kts | 251° |
| 2026-05-08 05:04 | 53.67477 | 9.69173 | 9067 ft | 292 kts | 251° |
| 2026-05-08 05:04 | 53.67156 | 9.67578 | 9562 ft | 288 kts | 251° |
| 2026-05-08 05:05 | 53.67068 | 9.67137 | 9685 ft | 288 kts | 251° |
| 2026-05-08 05:05 | 53.66872 | 9.66154 | 9900 ft | 290 kts | 251° |
| 2026-05-08 05:05 | 53.66588 | 9.64726 | 10187 ft | 292 kts | 251° |
| 2026-05-08 05:05 | 53.66466 | 9.64108 | 10327 ft | 293 kts | 251° |
| 2026-05-08 05:06 | 53.66043 | 9.61965 | 10786 ft | 294 kts | 252° |
| 2026-05-08 05:06 | 53.65652 | 9.60010 | 11052 ft | 304 kts | 250° |
| 2026-05-08 05:06 | 53.65288 | 9.58497 | 11119 ft | 315 kts | 245° |
| 2026-05-08 05:06 | 53.64131 | 9.55271 | 11555 ft | 327 kts | 234° |
| 2026-05-08 05:07 | 53.62782 | 9.52159 | 12230 ft | 331 kts | 234° |
| 2026-05-08 05:07 | 53.61425 | 9.49014 | 12917 ft | 334 kts | 234° |
| 2026-05-08 05:07 | 53.60053 | 9.45829 | 13611 ft | 337 kts | 234° |
| 2026-05-08 05:07 | 53.58674 | 9.42619 | 14248 ft | 340 kts | 234° |
| 2026-05-08 05:08 | 53.57281 | 9.39379 | 14859 ft | 342 kts | 234° |
| 2026-05-08 05:08 | 53.55882 | 9.36134 | 15484 ft | 344 kts | 234° |
| 2026-05-08 05:08 | 53.54474 | 9.32869 | 16128 ft | 345 kts | 235° |
| 2026-05-08 05:08 | 53.53058 | 9.29584 | 16735 ft | 348 kts | 235° |
| 2026-05-08 05:09 | 53.51633 | 9.26283 | 17310 ft | 351 kts | 234° |
| 2026-05-08 05:09 | 53.50195 | 9.22953 | 17929 ft | 353 kts | 234° |
| 2026-05-08 05:09 | 53.48745 | 9.19605 | 18520 ft | 355 kts | 235° |
| 2026-05-08 05:09 | 53.47289 | 9.16250 | 19051 ft | 357 kts | 234° |
| 2026-05-08 05:10 | 53.46087 | 9.13485 | 19483 ft | 359 kts | 234° |
| 2026-05-08 05:10 | 53.45319 | 9.11721 | 19732 ft | 361 kts | 234° |
| 2026-05-08 05:11 | 53.43998 | 9.08673 | 20220 ft | 362 kts | 234° |
| 2026-05-08 05:11 | 53.42509 | 9.05248 | 20772 ft | 364 kts | 234° |
| 2026-05-08 05:12 | 53.41008 | 9.01812 | 21246 ft | 367 kts | 234° |
| 2026-05-08 05:12 | 53.39489 | 8.98348 | 21690 ft | 370 kts | 234° |
| 2026-05-08 05:12 | 53.37960 | 8.94873 | 22185 ft | 372 kts | 234° |
| 2026-05-08 05:12 | 53.36422 | 8.91377 | 22677 ft | 374 kts | 234° |
| 2026-05-08 05:13 | 53.34961 | 8.87748 | 23138 ft | 376 kts | 241° |
| 2026-05-08 05:13 | 53.33884 | 8.83739 | 23587 ft | 379 kts | 250° |
| 2026-05-08 05:13 | 53.32986 | 8.79575 | 23995 ft | 382 kts | 250° |
| 2026-05-08 05:13 | 53.32081 | 8.75449 | 24397 ft | 384 kts | 249° |
| 2026-05-08 05:14 | 53.31148 | 8.71252 | 24784 ft | 386 kts | 249° |
| 2026-05-08 05:14 | 53.30203 | 8.67023 | 25136 ft | 389 kts | 249° |
| 2026-05-08 05:14 | 53.29255 | 8.62782 | 25527 ft | 391 kts | 249° |
| 2026-05-08 05:14 | 53.28309 | 8.58502 | 25922 ft | 393 kts | 249° |
| 2026-05-08 05:15 | 53.27364 | 8.54196 | 26281 ft | 396 kts | 250° |
| 2026-05-08 05:15 | 53.26417 | 8.49860 | 26641 ft | 398 kts | 250° |
| 2026-05-08 05:15 | 53.25516 | 8.45481 | 27014 ft | 400 kts | 251° |
| 2026-05-08 05:15 | 53.24670 | 8.41031 | 27403 ft | 402 kts | 252° |
| 2026-05-08 05:16 | 53.23853 | 8.36553 | 27739 ft | 405 kts | 253° |
| 2026-05-08 05:16 | 53.23037 | 8.32036 | 28089 ft | 407 kts | 253° |
| 2026-05-08 05:16 | 53.22208 | 8.27500 | 28467 ft | 409 kts | 252° |
| 2026-05-08 05:16 | 53.21364 | 8.22953 | 28805 ft | 411 kts | 252° |
| 2026-05-08 05:17 | 53.20498 | 8.18386 | 29134 ft | 414 kts | 252° |
| 2026-05-08 05:17 | 53.19617 | 8.13804 | 29496 ft | 416 kts | 252° |
| 2026-05-08 05:17 | 53.18731 | 8.09201 | 29902 ft | 417 kts | 252° |
| 2026-05-08 05:17 | 53.17849 | 8.04571 | 30225 ft | 420 kts | 252° |
| 2026-05-08 05:18 | 53.16969 | 7.99909 | 30504 ft | 423 kts | 252° |
| 2026-05-08 05:18 | 53.16087 | 7.95220 | 30814 ft | 424 kts | 252° |
| 2026-05-08 05:18 | 53.15203 | 7.90525 | 31134 ft | 426 kts | 252° |
| 2026-05-08 05:18 | 53.14309 | 7.85806 | 31402 ft | 429 kts | 252° |
| 2026-05-08 05:19 | 53.13407 | 7.81060 | 31687 ft | 431 kts | 252° |
| 2026-05-08 05:19 | 53.12498 | 7.76284 | 32005 ft | 432 kts | 252° |
| 2026-05-08 05:19 | 53.11586 | 7.71515 | 32373 ft | 432 kts | 252° |
| 2026-05-08 05:19 | 53.10665 | 7.66749 | 32738 ft | 432 kts | 251° |
| 2026-05-08 05:20 | 53.09541 | 7.62103 | 33093 ft | 433 kts | 247° |
| 2026-05-08 05:20 | 53.08380 | 7.57535 | 33397 ft | 435 kts | 247° |
| 2026-05-08 05:20 | 53.07199 | 7.52900 | 33738 ft | 435 kts | 247° |
| 2026-05-08 05:20 | 53.06015 | 7.48266 | 34112 ft | 435 kts | 247° |
| 2026-05-08 05:21 | 53.04828 | 7.43643 | 34452 ft | 434 kts | 247° |
| 2026-05-08 05:21 | 53.03640 | 7.39026 | 34762 ft | 434 kts | 247° |
| 2026-05-08 05:21 | 53.02454 | 7.34411 | 35067 ft | 434 kts | 247° |
| 2026-05-08 05:21 | 53.01276 | 7.29815 | 35449 ft | 431 kts | 247° |
| 2026-05-08 05:22 | 53.00100 | 7.25235 | 35789 ft | 430 kts | 247° |
| 2026-05-08 05:22 | 52.98920 | 7.20662 | 36001 ft | 431 kts | 246° |
| 2026-05-08 05:22 | 52.97736 | 7.16094 | 36056 ft | 431 kts | 246° |
| 2026-05-08 05:23 | 52.95362 | 7.06967 | 36060 ft | 431 kts | 246° |
| 2026-05-08 05:23 | 52.92976 | 6.97843 | 36060 ft | 431 kts | 246° |
| 2026-05-08 05:24 | 52.90590 | 6.88722 | 36059 ft | 432 kts | 246° |
| 2026-05-08 05:24 | 52.88202 | 6.79614 | 36064 ft | 431 kts | 246° |
| 2026-05-08 05:25 | 52.85803 | 6.70508 | 36069 ft | 432 kts | 246° |
| 2026-05-08 05:25 | 52.83391 | 6.61409 | 36077 ft | 432 kts | 246° |
| 2026-05-08 05:26 | 52.80963 | 6.52299 | 36079 ft | 432 kts | 246° |
| 2026-05-08 05:26 | 52.78531 | 6.43203 | 36086 ft | 433 kts | 246° |
| 2026-05-08 05:27 | 52.76097 | 6.34112 | 36086 ft | 433 kts | 246° |
| 2026-05-08 05:27 | 52.73653 | 6.25024 | 36084 ft | 433 kts | 246° |
| 2026-05-08 05:28 | 52.71199 | 6.15946 | 36086 ft | 433 kts | 246° |
| 2026-05-08 05:28 | 52.68737 | 6.06879 | 36089 ft | 433 kts | 245° |
| 2026-05-08 05:29 | 52.66282 | 5.97862 | 36093 ft | 433 kts | 245° |
| 2026-05-08 05:29 | 52.63808 | 5.88810 | 36090 ft | 434 kts | 245° |
| 2026-05-08 05:30 | 52.61326 | 5.79750 | 36088 ft | 434 kts | 245° |
| 2026-05-08 05:30 | 52.58836 | 5.70722 | 36092 ft | 433 kts | 245° |
| 2026-05-08 05:31 | 52.56338 | 5.61712 | 36107 ft | 432 kts | 245° |
| 2026-05-08 05:31 | 52.53846 | 5.52728 | 36106 ft | 431 kts | 245° |
| 2026-05-08 05:32 | 52.51351 | 5.43771 | 36102 ft | 432 kts | 245° |
| 2026-05-08 05:32 | 52.48854 | 5.34864 | 36100 ft | 432 kts | 245° |
| 2026-05-08 05:33 | 52.46747 | 5.27360 | 36097 ft | 432 kts | 245° |
| 2026-05-08 05:33 | 52.43817 | 5.16967 | 36094 ft | 432 kts | 245° |
| 2026-05-08 05:34 | 52.41275 | 5.08023 | 36091 ft | 432 kts | 245° |
| 2026-05-08 05:34 | 52.39169 | 5.00605 | 36097 ft | 432 kts | 245° |
| 2026-05-08 05:35 | 52.36632 | 4.91681 | 36101 ft | 432 kts | 244° |
| 2026-05-08 05:35 | 52.34088 | 4.82783 | 36100 ft | 432 kts | 244° |
| 2026-05-08 05:36 | 52.31527 | 4.73879 | 36099 ft | 432 kts | 244° |
| 2026-05-08 05:36 | 52.28971 | 4.65001 | 36097 ft | 432 kts | 244° |
| 2026-05-08 05:37 | 52.26407 | 4.56124 | 36088 ft | 432 kts | 244° |
| 2026-05-08 05:37 | 52.23834 | 4.47266 | 36101 ft | 432 kts | 244° |
| 2026-05-08 05:38 | 52.21249 | 4.38415 | 36101 ft | 432 kts | 244° |
| 2026-05-08 05:38 | 52.18664 | 4.29586 | 36106 ft | 431 kts | 244° |
| 2026-05-08 05:39 | 52.16076 | 4.20776 | 36109 ft | 430 kts | 244° |
| 2026-05-08 05:39 | 52.13489 | 4.12000 | 36115 ft | 430 kts | 244° |
| 2026-05-08 05:40 | 52.10893 | 4.03229 | 36109 ft | 430 kts | 244° |
| 2026-05-08 05:40 | 52.08294 | 3.94490 | 36112 ft | 430 kts | 244° |
| 2026-05-08 05:41 | 52.05683 | 3.85741 | 36113 ft | 430 kts | 244° |
| 2026-05-08 05:41 | 52.03067 | 3.77002 | 36110 ft | 430 kts | 244° |
| 2026-05-08 05:42 | 52.00443 | 3.68255 | 36109 ft | 431 kts | 244° |
| 2026-05-08 05:42 | 51.97811 | 3.59514 | 36111 ft | 431 kts | 244° |
| 2026-05-08 05:43 | 51.95173 | 3.50796 | 36118 ft | 430 kts | 243° |
| 2026-05-08 05:43 | 51.92530 | 3.42099 | 36122 ft | 430 kts | 243° |
| 2026-05-08 05:44 | 51.89889 | 3.33423 | 36120 ft | 429 kts | 243° |
| 2026-05-08 05:44 | 51.87253 | 3.24809 | 36117 ft | 429 kts | 243° |
| 2026-05-08 05:45 | 51.84999 | 3.15887 | 36112 ft | 429 kts | 256° |
| 2026-05-08 05:45 | 51.84223 | 3.06305 | 36100 ft | 430 kts | 263° |
| 2026-05-08 05:46 | 51.83603 | 2.96689 | 36098 ft | 430 kts | 263° |
| 2026-05-08 05:46 | 51.82959 | 2.87062 | 36100 ft | 431 kts | 263° |
| 2026-05-08 05:47 | 51.82312 | 2.77426 | 36095 ft | 431 kts | 263° |
| 2026-05-08 05:47 | 51.81658 | 2.67774 | 36100 ft | 432 kts | 263° |
| 2026-05-08 05:48 | 51.80992 | 2.58137 | 36109 ft | 431 kts | 263° |
| 2026-05-08 05:48 | 51.80320 | 2.48499 | 36112 ft | 431 kts | 263° |
| 2026-05-08 05:49 | 51.79641 | 2.38873 | 36116 ft | 431 kts | 263° |
| 2026-05-08 05:49 | 51.78959 | 2.29252 | 36115 ft | 431 kts | 263° |
| 2026-05-08 05:50 | 51.78269 | 2.19626 | 36111 ft | 431 kts | 263° |
| 2026-05-08 05:50 | 51.77689 | 2.09990 | 36115 ft | 430 kts | 264° |
| 2026-05-08 05:51 | 51.77164 | 2.00441 | 36115 ft | 429 kts | 264° |
| 2026-05-08 05:51 | 51.76607 | 1.90840 | 36121 ft | 429 kts | 263° |
| 2026-05-08 05:52 | 51.76018 | 1.81240 | 36118 ft | 429 kts | 263° |
| 2026-05-08 05:52 | 51.75415 | 1.71653 | 36117 ft | 429 kts | 263° |
| 2026-05-08 05:53 | 51.74805 | 1.62053 | 36116 ft | 429 kts | 263° |
| 2026-05-08 05:53 | 51.74198 | 1.52456 | 36108 ft | 429 kts | 263° |
| 2026-05-08 05:54 | 51.73587 | 1.42864 | 36113 ft | 429 kts | 263° |
| 2026-05-08 05:54 | 51.72966 | 1.33283 | 36107 ft | 429 kts | 263° |
| 2026-05-08 05:55 | 51.72331 | 1.23712 | 36105 ft | 429 kts | 263° |
| 2026-05-08 05:55 | 51.71692 | 1.14187 | 36096 ft | 430 kts | 263° |
| 2026-05-08 05:56 | 51.71041 | 1.04607 | 36096 ft | 430 kts | 263° |
| 2026-05-08 05:56 | 51.70384 | 0.95020 | 36097 ft | 430 kts | 263° |
| 2026-05-08 05:57 | 51.69727 | 0.85443 | 36099 ft | 430 kts | 263° |
| 2026-05-08 05:57 | 51.69055 | 0.75854 | 36097 ft | 430 kts | 262° |
| 2026-05-08 05:58 | 51.68366 | 0.66275 | 36097 ft | 430 kts | 262° |
| 2026-05-08 05:58 | 51.67683 | 0.56758 | 36097 ft | 430 kts | 262° |
| 2026-05-08 05:59 | 51.66986 | 0.47127 | 36100 ft | 430 kts | 262° |
| 2026-05-08 05:59 | 51.66284 | 0.37547 | 36095 ft | 430 kts | 262° |
| 2026-05-08 06:00 | 51.65570 | 0.27977 | 36095 ft | 430 kts | 262° |
| 2026-05-08 06:00 | 51.64855 | 0.18488 | 36096 ft | 430 kts | 262° |
| 2026-05-08 06:01 | 51.64178 | 0.08890 | 36098 ft | 431 kts | 263° |
| 2026-05-08 06:01 | 51.63669 | -0.00720 | 36103 ft | 431 kts | 264° |
| 2026-05-08 06:02 | 51.63180 | -0.10338 | 36102 ft | 431 kts | 264° |
| 2026-05-08 06:02 | 51.62653 | -0.19952 | 36102 ft | 431 kts | 263° |
| 2026-05-08 06:03 | 51.62098 | -0.29549 | 36104 ft | 431 kts | 263° |
| 2026-05-08 06:03 | 51.61521 | -0.39148 | 36074 ft | 431 kts | 263° |
| 2026-05-08 06:04 | 51.60943 | -0.48741 | 36078 ft | 431 kts | 263° |
| 2026-05-08 06:04 | 51.60360 | -0.58339 | 36074 ft | 431 kts | 263° |
| 2026-05-08 06:05 | 51.59780 | -0.67914 | 36059 ft | 426 kts | 263° |
| 2026-05-08 06:05 | 51.59143 | -0.72457 | 36054 ft | 409 kts | 244° |
| 2026-05-08 06:05 | 51.57563 | -0.76118 | 36055 ft | 392 kts | 220° |
| 2026-05-08 06:05 | 51.55317 | -0.78469 | 36051 ft | 384 kts | 204° |
| 2026-05-08 06:06 | 51.52785 | -0.79738 | 36049 ft | 383 kts | 185° |
| 2026-05-08 06:06 | 51.50110 | -0.79290 | 36059 ft | 386 kts | 161° |
| 2026-05-08 06:06 | 51.47704 | -0.77487 | 36063 ft | 389 kts | 155° |
| 2026-05-08 06:07 | 51.42680 | -0.74282 | 36054 ft | 390 kts | 153° |
| 2026-05-08 06:07 | 51.40460 | -0.71775 | 35811 ft | 396 kts | 135° |
| 2026-05-08 06:07 | 51.38829 | -0.68250 | 35340 ft | 398 kts | 117° |
| 2026-05-08 06:07 | 51.37956 | -0.63973 | 34352 ft | 415 kts | 98° |
| 2026-05-08 06:08 | 51.38046 | -0.59266 | 33082 ft | 434 kts | 78° |
| 2026-05-08 06:08 | 51.38855 | -0.54502 | 31600 ft | 453 kts | 74° |
| 2026-05-08 06:08 | 51.39745 | -0.49554 | 29996 ft | 474 kts | 74° |
| 2026-05-08 06:08 | 51.40972 | -0.44581 | 28531 ft | 485 kts | 60° |
| 2026-05-08 06:09 | 51.42762 | -0.39967 | 27268 ft | 490 kts | 57° |
| 2026-05-08 06:09 | 51.44606 | -0.35339 | 26036 ft | 495 kts | 57° |
| 2026-05-08 06:09 | 51.46467 | -0.30678 | 24923 ft | 497 kts | 57° |
| 2026-05-08 06:09 | 51.48323 | -0.26030 | 24188 ft | 490 kts | 57° |
| 2026-05-08 06:10 | 51.50147 | -0.21460 | 23465 ft | 482 kts | 57° |
| 2026-05-08 06:10 | 51.51944 | -0.16949 | 22581 ft | 476 kts | 57° |
| 2026-05-08 06:10 | 51.53717 | -0.12485 | 21708 ft | 470 kts | 57° |
| 2026-05-08 06:10 | 51.55456 | -0.08090 | 20895 ft | 465 kts | 58° |
| 2026-05-08 06:11 | 51.57181 | -0.03726 | 20106 ft | 459 kts | 58° |
| 2026-05-08 06:11 | 51.58881 | 0.00576 | 19348 ft | 453 kts | 58° |
| 2026-05-08 06:11 | 51.60560 | 0.04834 | 18611 ft | 448 kts | 58° |
| 2026-05-08 06:11 | 51.62212 | 0.09040 | 17790 ft | 442 kts | 58° |
| 2026-05-08 06:12 | 51.63842 | 0.13202 | 16970 ft | 436 kts | 58° |
| 2026-05-08 06:12 | 51.64887 | 0.15943 | 16446 ft | 432 kts | 62° |
| 2026-05-08 06:12 | 51.65953 | 0.20387 | 15714 ft | 424 kts | 78° |
| 2026-05-08 06:12 | 51.66207 | 0.25068 | 14998 ft | 417 kts | 94° |
| 2026-05-08 06:13 | 51.65358 | 0.30997 | 14094 ft | 408 kts | 114° |
| 2026-05-08 06:13 | 51.64472 | 0.33699 | 13635 ft | 403 kts | 124° |
| 2026-05-08 06:13 | 51.62684 | 0.37117 | 12921 ft | 397 kts | 138° |
| 2026-05-08 06:13 | 51.60447 | 0.39665 | 12171 ft | 392 kts | 153° |
| 2026-05-08 06:14 | 51.57921 | 0.41208 | 11439 ft | 388 kts | 167° |
| 2026-05-08 06:14 | 51.55263 | 0.41699 | 10732 ft | 383 kts | 181° |
| 2026-05-08 06:14 | 51.52635 | 0.41139 | 10013 ft | 380 kts | 195° |
| 2026-05-08 06:14 | 51.50195 | 0.39593 | 9246 ft | 376 kts | 208° |
| 2026-05-08 06:15 | 51.48077 | 0.37183 | 8496 ft | 372 kts | 222° |
| 2026-05-08 06:15 | 51.46411 | 0.34072 | 8011 ft | 362 kts | 235° |
| 2026-05-08 06:15 | 51.45101 | 0.30830 | 7809 ft | 331 kts | 237° |
| 2026-05-08 06:15 | 51.43941 | 0.27830 | 7670 ft | 304 kts | 238° |
| 2026-05-08 06:16 | 51.42887 | 0.25055 | 7547 ft | 280 kts | 238° |
| 2026-05-08 06:16 | 51.41905 | 0.22470 | 7327 ft | 264 kts | 238° |
| 2026-05-08 06:16 | 51.40960 | 0.19997 | 6956 ft | 257 kts | 238° |
| 2026-05-08 06:16 | 51.40022 | 0.17558 | 6898 ft | 258 kts | 238° |
| 2026-05-08 06:17 | 51.38569 | 0.12294 | 6903 ft | 260 kts | 254° |
| 2026-05-08 06:17 | 51.38244 | 0.09445 | 6903 ft | 260 kts | 263° |
| 2026-05-08 06:17 | 51.38209 | 0.06554 | 6902 ft | 261 kts | 272° |
| 2026-05-08 06:18 | 51.38477 | 0.03677 | 6902 ft | 262 kts | 283° |
| 2026-05-08 06:18 | 51.39049 | 0.00887 | 6903 ft | 273 kts | 292° |
| 2026-05-08 06:18 | 51.39970 | -0.01855 | 6877 ft | 284 kts | 306° |
| 2026-05-08 06:18 | 51.41390 | -0.04041 | 6884 ft | 285 kts | 326° |
| 2026-05-08 06:19 | 51.43100 | -0.05662 | 6884 ft | 286 kts | 330° |
| 2026-05-08 06:19 | 51.44828 | -0.07179 | 6882 ft | 286 kts | 331° |
| 2026-05-08 06:19 | 51.46599 | -0.08636 | 6882 ft | 286 kts | 332° |
| 2026-05-08 06:19 | 51.48380 | -0.10080 | 6881 ft | 286 kts | 332° |
| 2026-05-08 06:20 | 51.50158 | -0.11522 | 6883 ft | 286 kts | 332° |
| 2026-05-08 06:20 | 51.51936 | -0.12961 | 6879 ft | 286 kts | 332° |
| 2026-05-08 06:20 | 51.53719 | -0.14403 | 6888 ft | 286 kts | 332° |
| 2026-05-08 06:20 | 51.55499 | -0.15843 | 6886 ft | 286 kts | 332° |
| 2026-05-08 06:21 | 51.57275 | -0.17281 | 6898 ft | 286 kts | 332° |
| 2026-05-08 06:21 | 51.59058 | -0.18721 | 6903 ft | 286 kts | 332° |
| 2026-05-08 06:21 | 51.60836 | -0.20169 | 6899 ft | 286 kts | 328° |
| 2026-05-08 06:21 | 51.62334 | -0.22175 | 6764 ft | 278 kts | 307° |
| 2026-05-08 06:22 | 51.63202 | -0.24854 | 6627 ft | 264 kts | 284° |
| 2026-05-08 06:22 | 51.63385 | -0.27647 | 6566 ft | 240 kts | 263° |
| 2026-05-08 06:22 | 51.63159 | -0.30199 | 6512 ft | 224 kts | 260° |
| 2026-05-08 06:22 | 51.62934 | -0.32660 | 6461 ft | 222 kts | 261° |
| 2026-05-08 06:23 | 51.62712 | -0.35116 | 6395 ft | 221 kts | 261° |
| 2026-05-08 06:23 | 51.62490 | -0.37560 | 6347 ft | 222 kts | 261° |
| 2026-05-08 06:23 | 51.62269 | -0.40009 | 6273 ft | 220 kts | 261° |
| 2026-05-08 06:23 | 51.62048 | -0.42449 | 6231 ft | 220 kts | 261° |
| 2026-05-08 06:24 | 51.61826 | -0.44882 | 6177 ft | 220 kts | 261° |
| 2026-05-08 06:24 | 51.61604 | -0.47314 | 6122 ft | 219 kts | 261° |
| 2026-05-08 06:24 | 51.61380 | -0.49740 | 6079 ft | 219 kts | 261° |
| 2026-05-08 06:24 | 51.61154 | -0.52164 | 6034 ft | 219 kts | 261° |
| 2026-05-08 06:25 | 51.60926 | -0.54580 | 5979 ft | 217 kts | 261° |
| 2026-05-08 06:25 | 51.60705 | -0.56917 | 5924 ft | 206 kts | 260° |
| 2026-05-08 06:25 | 51.60494 | -0.59156 | 5872 ft | 200 kts | 261° |
| 2026-05-08 06:25 | 51.60286 | -0.61362 | 5826 ft | 199 kts | 260° |
| 2026-05-08 06:26 | 51.60078 | -0.63558 | 5781 ft | 199 kts | 260° |
| 2026-05-08 06:26 | 51.59883 | -0.65754 | 5735 ft | 198 kts | 262° |
| 2026-05-08 06:26 | 51.59738 | -0.67958 | 5690 ft | 198 kts | 263° |
| 2026-05-08 06:26 | 51.59612 | -0.70125 | 5521 ft | 196 kts | 264° |
| 2026-05-08 06:27 | 51.59439 | -0.72295 | 5264 ft | 195 kts | 254° |
| 2026-05-08 06:27 | 51.58873 | -0.74259 | 5056 ft | 194 kts | 234° |
| 2026-05-08 06:27 | 51.57913 | -0.75766 | 4830 ft | 194 kts | 214° |
| 2026-05-08 06:27 | 51.56683 | -0.76652 | 4567 ft | 195 kts | 198° |
| 2026-05-08 06:28 | 51.55373 | -0.77293 | 4274 ft | 197 kts | 198° |
| 2026-05-08 06:28 | 51.54061 | -0.77943 | 4019 ft | 197 kts | 198° |
| 2026-05-08 06:28 | 51.52750 | -0.78587 | 3781 ft | 197 kts | 195° |
| 2026-05-08 06:28 | 51.51392 | -0.78734 | 3538 ft | 197 kts | 172° |
| 2026-05-08 06:29 | 51.50103 | -0.78006 | 3286 ft | 198 kts | 148° |
| 2026-05-08 06:29 | 51.48985 | -0.76710 | 3183 ft | 199 kts | 143° |
| 2026-05-08 06:29 | 51.48062 | -0.75073 | 3178 ft | 200 kts | 119° |
| 2026-05-08 06:29 | 51.47663 | -0.72945 | 3095 ft | 201 kts | 95° |
| 2026-05-08 06:30 | 51.47633 | -0.70739 | 2855 ft | 195 kts | 90° |
| 2026-05-08 06:30 | 51.47647 | -0.68588 | 2591 ft | 191 kts | 90° |
| 2026-05-08 06:30 | 51.47660 | -0.66485 | 2326 ft | 186 kts | 90° |
| 2026-05-08 06:30 | 51.47672 | -0.64428 | 2077 ft | 182 kts | 90° |
| 2026-05-08 06:31 | 51.47683 | -0.62437 | 1832 ft | 173 kts | 90° |
| 2026-05-08 06:31 | 51.47693 | -0.60565 | 1604 ft | 164 kts | 90° |
| 2026-05-08 06:31 | 51.47702 | -0.58778 | 1393 ft | 156 kts | 90° |
| 2026-05-08 06:31 | 51.47710 | -0.57090 | 1189 ft | 148 kts | 90° |
| 2026-05-08 06:32 | 51.47718 | -0.55482 | 986 ft | 144 kts | 90° |
| 2026-05-08 06:32 | 51.47725 | -0.53885 | 785 ft | 142 kts | 90° |
| 2026-05-08 06:32 | 51.47733 | -0.52296 | 592 ft | 139 kts | 90° |
| 2026-05-08 06:32 | 51.47743 | -0.50782 | 409 ft | 136 kts | 90° |
| 2026-05-08 06:33 | 51.47755 | -0.49242 | 232 ft | 136 kts | 91° |
| 2026-05-08 06:33 | 51.47752 | -0.47744 | 86 ft | 127 kts | 90° |
| 2026-05-08 06:33 | 51.47758 | -0.46575 | 89 ft | 82 kts | 90° |
| 2026-05-08 06:33 | 51.47756 | -0.45905 | 88 ft | 46 kts | 90° |
| 2026-05-08 06:34 | 51.47754 | -0.45536 | 87 ft | 21 kts | 107° |
| 2026-05-08 06:34 | 51.47657 | -0.45468 | 86 ft | 13 kts | 179° |
| 2026-05-08 06:34 | 51.47560 | -0.45469 | 86 ft | 15 kts | 176° |
| 2026-05-08 06:34 | 51.47508 | -0.45341 | 88 ft | 17 kts | 86° |
| 2026-05-08 06:35 | 51.47509 | -0.45141 | 88 ft | 19 kts | 90° |
| 2026-05-08 06:35 | 51.47510 | -0.44913 | 87 ft | 22 kts | 89° |
| 2026-05-08 06:35 | 51.47511 | -0.44679 | 88 ft | 19 kts | 90° |
| 2026-05-08 06:35 | 51.47447 | -0.44559 | 86 ft | 17 kts | 178° |
| 2026-05-08 06:36 | 51.47318 | -0.44559 | 86 ft | 20 kts | 180° |
| 2026-05-08 06:36 | 51.47172 | -0.44556 | 86 ft | 22 kts | 180° |
| 2026-05-08 06:36 | 51.47017 | -0.44555 | 86 ft | 22 kts | 180° |
| 2026-05-08 06:36 | 51.46918 | -0.44554 | 86 ft | 13 kts | 179° |
| 2026-05-08 06:37 | 51.46848 | -0.44554 | 86 ft | 5 kts | 185° |
| 2026-05-08 06:37 | 51.46823 | -0.44601 | 88 ft | 7 kts | 263° |
| 2026-05-08 06:37 | 51.46821 | -0.44656 | 87 ft | 3 kts | 266° |
| 2026-05-08 06:37 | 51.46820 | -0.44676 | 90 ft | 0 kts | 266° |